createdAt,value
2023-01-06T00:01:36.245Z,100866.34
2023-01-06T00:04:03.715Z,100867.00
2023-01-06T00:06:31.679Z,100869.81
2023-01-06T00:09:01.683Z,100875.91
2023-01-06T00:11:28.990Z,100873.94
2023-01-06T00:13:56.804Z,100870.31
2023-01-06T00:16:24.011Z,100875.41
2023-01-06T00:18:54.567Z,100858.91
2023-01-06T00:21:21.691Z,100850.63
2023-01-06T00:23:48.691Z,100850.28
2023-01-06T00:26:15.777Z,100835.56
2023-01-06T00:28:42.979Z,100839.41
2023-01-06T00:31:12.424Z,100829.81
2023-01-06T00:33:39.589Z,100824.34
2023-01-06T00:36:07.359Z,100822.88
2023-01-06T00:38:36.744Z,100832.97
2023-01-06T00:41:05.530Z,100816.28
2023-01-06T00:43:32.736Z,100824.38
2023-01-06T00:46:01.984Z,100826.88
2023-01-06T00:48:29.142Z,100834.13
2023-01-06T00:51:00.675Z,100818.63
2023-01-06T00:53:27.720Z,100823.78
2023-01-06T00:55:59.955Z,100824.66
2023-01-06T00:58:29.892Z,100824.81
2023-01-06T01:00:56.974Z,100822.69
2023-01-06T01:03:24.109Z,100828.78
2023-01-06T01:05:51.240Z,100828.28
2023-01-06T01:08:18.333Z,100840.03
2023-01-06T01:10:45.392Z,100815.63
2023-01-06T01:13:12.476Z,100813.31
2023-01-06T01:15:39.652Z,100806.56
2023-01-06T01:18:06.752Z,100822.41
2023-01-06T01:20:34.399Z,100826.50
2023-01-06T01:23:01.493Z,100813.31
2023-01-06T01:25:28.530Z,100818.13
2023-01-06T01:27:55.492Z,100811.19
2023-01-06T01:30:22.530Z,100810.81
2023-01-06T01:32:49.531Z,100814.81
2023-01-06T01:35:16.715Z,100819.59
2023-01-06T01:37:43.745Z,100820.44
2023-01-06T01:40:11.384Z,100796.81
2023-01-06T01:42:43.195Z,100799.09
2023-01-06T01:45:13.284Z,100787.91
2023-01-06T01:47:43.490Z,100797.28
2023-01-06T01:50:14.257Z,100790.38
2023-01-06T01:52:43.489Z,100809.84
2023-01-06T01:55:11.231Z,100834.78
2023-01-06T01:57:41.393Z,100841.53
2023-01-06T02:00:09.014Z,100835.63
2023-01-06T02:02:36.468Z,100837.75
2023-01-06T02:05:03.852Z,100833.97
2023-01-06T02:07:31.201Z,100845.34
2023-01-06T02:10:01.310Z,100849.16
2023-01-06T02:12:28.996Z,100854.47
2023-01-06T02:14:56.076Z,100870.81
2023-01-06T02:17:23.611Z,100856.44
2023-01-06T02:19:51.944Z,100886.47
2023-01-06T02:22:21.973Z,100865.66
2023-01-06T02:24:52.023Z,100879.88
2023-01-06T02:27:22.093Z,100881.53
2023-01-06T02:29:52.303Z,100890.94
2023-01-06T02:32:22.334Z,100899.84
2023-01-06T02:34:52.431Z,100895.72
2023-01-06T02:37:22.757Z,100900.50
2023-01-06T02:39:51.403Z,100906.09
2023-01-06T02:42:18.751Z,100925.06
2023-01-06T02:44:48.835Z,100927.22
2023-01-06T02:47:19.993Z,100928.19
2023-01-06T02:49:52.742Z,100943.69
2023-01-06T02:52:21.234Z,100938.22
2023-01-06T02:54:51.377Z,100944.97
2023-01-06T02:57:18.766Z,100952.38
2023-01-06T02:59:50.352Z,100963.56
2023-01-06T03:02:19.152Z,100970.28
2023-01-06T03:04:47.927Z,100968.28
2023-01-06T03:07:15.996Z,100974.88
2023-01-06T03:09:44.247Z,100964.81
2023-01-06T03:12:17.302Z,100967.22
2023-01-06T03:14:47.042Z,100980.75
2023-01-06T03:17:14.284Z,100982.03
2023-01-06T03:19:41.536Z,100980.69
2023-01-06T03:22:10.095Z,100991.50
2023-01-06T03:24:38.077Z,100995.44
2023-01-06T03:27:05.778Z,100998.69
2023-01-06T03:29:33.255Z,101005.28
2023-01-06T03:32:04.091Z,101009.34
2023-01-06T03:34:34.194Z,101021.00
2023-01-06T03:37:04.294Z,101003.53
2023-01-06T03:39:31.664Z,101016.88
2023-01-06T03:42:04.902Z,101018.84
2023-01-06T03:44:33.304Z,101020.44
2023-01-06T03:47:05.855Z,101018.41
2023-01-06T03:49:36.729Z,101014.59
2023-01-06T03:52:08.242Z,101017.22
2023-01-06T03:54:36.777Z,101014.06
2023-01-06T03:57:04.152Z,101013.72
2023-01-06T03:59:33.313Z,101013.34
2023-01-06T04:02:00.815Z,101014.44
2023-01-06T04:04:27.916Z,101006.69
2023-01-06T04:06:55.021Z,101013.38
2023-01-06T04:09:22.274Z,101020.78
2023-01-06T04:11:52.443Z,101025.19
2023-01-06T04:14:19.555Z,101028.00
2023-01-06T04:16:46.623Z,101031.06
2023-01-06T04:19:13.794Z,101027.09
2023-01-06T04:21:40.796Z,101025.88
2023-01-06T04:24:07.928Z,101031.97
2023-01-06T04:26:35.015Z,101034.47
2023-01-06T04:29:02.760Z,101037.22
2023-01-06T04:31:30.485Z,101042.66
2023-01-06T04:33:58.440Z,101045.88
2023-01-06T04:36:25.554Z,101041.59
2023-01-06T04:38:52.650Z,101044.34
2023-01-06T04:41:19.765Z,101042.88
2023-01-06T04:43:46.856Z,101047.16
2023-01-06T04:46:13.880Z,101051.72
2023-01-06T04:48:41.175Z,101053.66
2023-01-06T04:51:09.271Z,101057.13
2023-01-06T04:53:37.225Z,101050.38
2023-01-06T04:56:05.503Z,101061.19
2023-01-06T04:58:33.140Z,101052.91
2023-01-06T05:01:03.365Z,101063.72
2023-01-06T05:03:30.936Z,101069.13
2023-01-06T05:06:01.036Z,101062.38
2023-01-06T05:08:28.263Z,101070.94
2023-01-06T05:10:58.376Z,101070.09
2023-01-06T05:13:25.435Z,101067.91
2023-01-06T05:15:52.495Z,101069.88
2023-01-06T05:18:19.493Z,101066.84
2023-01-06T05:20:50.424Z,101073.91
2023-01-06T05:23:17.576Z,101073.22
2023-01-06T05:25:44.636Z,101073.53
2023-01-06T05:28:12.199Z,101081.69
2023-01-06T05:30:39.320Z,101093.59
2023-01-06T05:33:06.546Z,101097.50
2023-01-06T05:35:33.630Z,101097.94
2023-01-06T05:38:00.631Z,101096.13
2023-01-06T05:40:28.335Z,101103.19
2023-01-06T05:42:56.962Z,101096.41
2023-01-06T05:45:25.316Z,101100.13
2023-01-06T05:47:52.736Z,101093.91
2023-01-06T05:50:19.859Z,101103.59
2023-01-06T05:52:46.908Z,101097.50
2023-01-06T05:55:13.995Z,101096.41
2023-01-06T05:57:41.135Z,101102.22
2023-01-06T06:00:08.764Z,101100.44
2023-01-06T06:02:35.916Z,101099.47
2023-01-06T06:05:02.961Z,101098.78
2023-01-06T06:07:30.155Z,101090.31
2023-01-06T06:09:57.377Z,101101.66
2023-01-06T06:12:24.439Z,101104.44
2023-01-06T06:14:51.510Z,101113.41
2023-01-06T06:17:18.717Z,101110.38
2023-01-06T06:19:45.735Z,101110.69
2023-01-06T06:22:12.902Z,101113.59
2023-01-06T06:24:39.968Z,101114.69
2023-01-06T06:27:06.951Z,101113.88
2023-01-06T06:29:34.196Z,101123.00
2023-01-06T06:32:01.260Z,101120.69
2023-01-06T06:34:28.335Z,101118.88
2023-01-06T06:36:55.463Z,101124.41
2023-01-06T06:39:22.495Z,101126.50
2023-01-06T06:41:49.530Z,101125.78
2023-01-06T06:44:16.676Z,101129.97
2023-01-06T06:46:43.807Z,101134.09
2023-01-06T06:49:10.879Z,101130.50
2023-01-06T06:51:38.006Z,101138.94
2023-01-06T06:54:05.241Z,101129.69
2023-01-06T06:56:32.261Z,101128.28
2023-01-06T06:58:59.356Z,101132.41
2023-01-06T07:01:26.627Z,101135.75
2023-01-06T07:03:53.841Z,101139.09
2023-01-06T07:06:23.759Z,101128.56
2023-01-06T07:08:51.342Z,101133.66
2023-01-06T07:11:18.857Z,101139.09
2023-01-06T07:13:46.357Z,101144.59
2023-01-06T07:16:13.611Z,101136.88
2023-01-06T07:18:40.795Z,101141.44
2023-01-06T07:21:08.068Z,101137.13
2023-01-06T07:23:35.237Z,101136.31
2023-01-06T07:26:03.096Z,101140.72
2023-01-06T07:28:31.215Z,101139.09
2023-01-06T07:30:58.394Z,101149.44
2023-01-06T07:33:25.514Z,101150.16
2023-01-06T07:35:53.946Z,101159.00
2023-01-06T07:38:21.047Z,101166.06
2023-01-06T07:40:48.451Z,101155.84
2023-01-06T07:43:17.256Z,101161.09
2023-01-06T07:45:46.296Z,101164.94
2023-01-06T07:48:13.375Z,101154.00
2023-01-06T07:50:40.467Z,101159.69
2023-01-06T07:53:07.603Z,101166.88
2023-01-06T07:55:34.683Z,101170.34
2023-01-06T07:58:04.818Z,101171.31
2023-01-06T08:00:32.044Z,101170.34
2023-01-06T08:02:59.222Z,101169.78
2023-01-06T08:05:26.296Z,101165.09
2023-01-06T08:07:53.456Z,101163.31
2023-01-06T08:10:20.600Z,101170.34
2023-01-06T08:12:47.679Z,101167.97
2023-01-06T08:15:14.741Z,101164.53
2023-01-06T08:17:42.380Z,101169.53
2023-01-06T08:20:10.159Z,101176.56
2023-01-06T08:22:37.276Z,101171.19
2023-01-06T08:25:04.477Z,101183.06
2023-01-06T08:27:31.663Z,101184.03
2023-01-06T08:29:59.443Z,101188.16
2023-01-06T08:32:26.526Z,101183.63
2023-01-06T08:34:53.853Z,101197.44
2023-01-06T08:37:20.977Z,101192.03
2023-01-06T08:39:48.135Z,101186.38
2023-01-06T08:42:15.235Z,101194.81
2023-01-06T08:44:42.422Z,101201.88
2023-01-06T08:47:09.584Z,101197.72
2023-01-06T08:49:36.661Z,101202.13
2023-01-06T08:52:04.011Z,101204.75
2023-01-06T08:54:31.153Z,101193.03
2023-01-06T08:56:58.305Z,101207.66
2023-01-06T08:59:25.308Z,101206.03
2023-01-06T09:01:54.852Z,101215.28
2023-01-06T09:04:22.120Z,101210.69
2023-01-06T09:06:49.179Z,101218.75
2023-01-06T09:09:17.236Z,101210.84
2023-01-06T09:11:44.661Z,101205.88
2023-01-06T09:14:12.337Z,101202.28
2023-01-06T09:16:39.504Z,101204.66
2023-01-06T09:19:06.624Z,101211.53
2023-01-06T09:21:33.916Z,101213.91
2023-01-06T09:24:00.982Z,101211.28
2023-01-06T09:26:28.034Z,101217.06
2023-01-06T09:28:55.612Z,101220.94
2023-01-06T09:31:22.754Z,101222.88
2023-01-06T09:33:49.943Z,101225.09
2023-01-06T09:36:16.980Z,101236.28
2023-01-06T09:38:44.081Z,101223.94
2023-01-06T09:41:14.242Z,101223.81
2023-01-06T09:43:50.047Z,101224.34
2023-01-06T09:46:20.299Z,101221.72
2023-01-06T09:48:57.333Z,101238.06
2023-01-06T09:51:26.160Z,101240.72
2023-01-06T09:53:57.256Z,101232.81
2023-01-06T09:56:25.461Z,101237.66
2023-01-06T09:58:57.361Z,101220.72
2023-01-06T10:01:28.112Z,101223.88
2023-01-06T10:03:57.291Z,101227.09
2023-01-06T10:06:27.519Z,101229.41
2023-01-06T10:08:57.717Z,101232.59
2023-01-06T10:11:26.263Z,101232.97
2023-01-06T10:13:57.109Z,101234.94
2023-01-06T10:16:27.231Z,101239.06
2023-01-06T10:18:59.622Z,101227.44
2023-01-06T10:21:29.802Z,101219.81
2023-01-06T10:23:59.984Z,101221.84
2023-01-06T10:26:30.336Z,101222.63
2023-01-06T10:29:00.549Z,101214.00
2023-01-06T10:31:30.788Z,101226.13
2023-01-06T10:33:58.677Z,101222.22
2023-01-06T10:36:33.211Z,101221.66
2023-01-06T10:39:01.658Z,101209.38
2023-01-06T10:41:31.817Z,101205.84
2023-01-06T10:43:58.974Z,101214.00
2023-01-06T10:46:30.986Z,101208.25
2023-01-06T10:48:58.179Z,101204.50
2023-01-06T10:51:25.655Z,101222.38
2023-01-06T10:53:53.299Z,101211.41
2023-01-06T10:56:20.396Z,101209.94
2023-01-06T10:58:53.575Z,101199.41
2023-01-06T11:01:23.923Z,101202.84
2023-01-06T11:04:07.076Z,101197.81
2023-01-06T11:06:34.900Z,101186.94
2023-01-06T11:09:08.054Z,101184.69
2023-01-06T11:11:45.781Z,101169.09
2023-01-06T11:14:15.947Z,101166.97
2023-01-06T11:16:43.113Z,101160.72
2023-01-06T11:19:23.102Z,101162.03
2023-01-06T11:21:50.176Z,101156.78
2023-01-06T11:24:20.619Z,101162.59
2023-01-06T11:26:50.781Z,101160.47
2023-01-06T11:29:19.914Z,101156.16
2023-01-06T11:31:49.486Z,101153.84
2023-01-06T11:34:19.693Z,101152.19
2023-01-06T11:36:47.411Z,101151.19
2023-01-06T11:39:16.723Z,101144.78
2023-01-06T11:41:46.304Z,101135.72
2023-01-06T11:44:13.816Z,101142.50
2023-01-06T11:46:46.539Z,101141.22
2023-01-06T11:49:16.982Z,101135.31
2023-01-06T11:51:44.919Z,101135.16
2023-01-06T11:54:15.679Z,101133.34
2023-01-06T11:56:57.184Z,101128.91
2023-01-06T11:59:25.666Z,101131.38
2023-01-06T12:01:55.909Z,101127.75
2023-01-06T12:04:26.247Z,101135.03
2023-01-06T12:06:55.720Z,101128.44
2023-01-06T12:09:23.246Z,101127.31
2023-01-06T12:11:50.732Z,101126.34
2023-01-06T12:14:28.463Z,101119.41
2023-01-06T12:16:59.490Z,101101.06
2023-01-06T12:19:33.305Z,101099.41
2023-01-06T12:22:01.310Z,101088.34
2023-01-06T12:24:30.142Z,101084.75
2023-01-06T12:26:57.572Z,101071.34
2023-01-06T12:29:25.466Z,101073.16
2023-01-06T12:31:55.687Z,101066.91
2023-01-06T12:34:26.215Z,101066.06
2023-01-06T12:36:56.702Z,101076.63
2023-01-06T12:39:28.518Z,101075.78
2023-01-06T12:41:57.590Z,101087.53
2023-01-06T12:44:27.735Z,101083.91
2023-01-06T12:46:57.961Z,101074.84
2023-01-06T12:49:29.718Z,101068.75
2023-01-06T12:51:58.811Z,101068.56
2023-01-06T12:54:27.338Z,101065.63
2023-01-06T12:56:57.602Z,101061.00
2023-01-06T12:59:26.139Z,101062.50
2023-01-06T13:01:54.125Z,101054.09
2023-01-06T13:04:21.743Z,101052.66
2023-01-06T13:06:52.035Z,101045.22
2023-01-06T13:09:23.172Z,101039.59
2023-01-06T13:11:50.584Z,101030.22
2023-01-06T13:14:20.713Z,101029.38
2023-01-06T13:16:51.169Z,101031.03
2023-01-06T13:19:21.695Z,101026.59
2023-01-06T13:21:51.069Z,101035.00
2023-01-06T13:24:27.223Z,101019.50
2023-01-06T13:26:54.738Z,101011.25
2023-01-06T13:29:25.013Z,101012.09
2023-01-06T13:32:01.645Z,101005.00
2023-01-06T13:34:37.292Z,101006.66
2023-01-06T13:37:07.424Z,101000.53
2023-01-06T13:39:39.523Z,100999.72
2023-01-06T13:42:08.237Z,100996.25
2023-01-06T13:44:37.552Z,100989.97
2023-01-06T13:47:06.835Z,100998.53
2023-01-06T13:49:34.678Z,100990.47
2023-01-06T13:52:01.819Z,100994.78
2023-01-06T13:54:32.013Z,100991.28
2023-01-06T13:57:02.234Z,100989.50
2023-01-06T13:59:29.297Z,100989.00
2023-01-06T14:02:00.128Z,100995.94
2023-01-06T14:04:31.026Z,100993.94
2023-01-06T14:06:58.511Z,100986.84
2023-01-06T14:09:25.782Z,100981.56
2023-01-06T14:11:53.436Z,100980.91
2023-01-06T14:14:26.927Z,100977.09
2023-01-06T14:16:54.942Z,100979.06
2023-01-06T14:19:24.336Z,100971.66
2023-01-06T14:21:54.628Z,100971.66
2023-01-06T14:24:23.545Z,100959.09
2023-01-06T14:26:54.505Z,100962.06
2023-01-06T14:29:24.829Z,100953.63
2023-01-06T14:31:52.097Z,100947.53
2023-01-06T14:34:19.424Z,100942.91
2023-01-06T14:36:50.159Z,100955.63
2023-01-06T14:39:20.898Z,100947.69
2023-01-06T14:41:51.197Z,100944.75
2023-01-06T14:44:20.502Z,100934.81
2023-01-06T14:46:50.668Z,100933.69
2023-01-06T14:49:21.139Z,100931.03
2023-01-06T14:51:53.534Z,100926.06
2023-01-06T14:54:20.955Z,100920.78
2023-01-06T14:56:51.071Z,100916.34
2023-01-06T14:59:18.279Z,100918.97
2023-01-06T15:01:54.773Z,100923.13
2023-01-06T15:04:25.137Z,100918.00
2023-01-06T15:06:55.382Z,100915.50
2023-01-06T15:09:22.400Z,100921.13
2023-01-06T15:11:49.639Z,100921.97
2023-01-06T15:14:19.947Z,100928.38
2023-01-06T15:16:47.076Z,100920.66
2023-01-06T15:19:15.597Z,100917.19
2023-01-06T15:21:44.628Z,100931.22
2023-01-06T15:24:14.869Z,100919.63
2023-01-06T15:26:42.491Z,100908.25
2023-01-06T15:29:15.220Z,100912.53
2023-01-06T15:31:43.322Z,100912.53
2023-01-06T15:34:18.791Z,100907.44
2023-01-06T15:36:46.743Z,100916.50
2023-01-06T15:39:16.019Z,100912.06
2023-01-06T15:41:43.637Z,100912.06
2023-01-06T15:44:13.839Z,100909.41
2023-01-06T15:46:42.456Z,100912.22
2023-01-06T15:49:12.627Z,100911.38
2023-01-06T15:51:39.764Z,100907.28
2023-01-06T15:54:06.947Z,100906.44
2023-01-06T15:56:34.165Z,100897.69
2023-01-06T15:59:02.030Z,100889.94
2023-01-06T16:01:29.282Z,100883.03
2023-01-06T16:03:58.696Z,100881.53
2023-01-06T16:06:27.231Z,100870.28
2023-01-06T16:08:54.456Z,100847.72
2023-01-06T16:11:43.015Z,100829.72
2023-01-06T16:14:13.393Z,100850.50
2023-01-06T16:16:40.676Z,100853.16
2023-01-06T16:19:10.834Z,100858.75
2023-01-06T16:21:38.090Z,100854.28
2023-01-06T16:24:06.027Z,100851.00
2023-01-06T16:26:41.001Z,100853.13
2023-01-06T16:29:24.624Z,100860.25
2023-01-06T16:31:51.651Z,100857.63
2023-01-06T16:34:21.719Z,100854.16
2023-01-06T16:36:49.625Z,100849.84
2023-01-06T16:39:17.025Z,100849.69
2023-01-06T16:41:47.153Z,100846.88
2023-01-06T16:44:16.443Z,100834.34
2023-01-06T16:46:43.781Z,100831.56
2023-01-06T16:49:11.161Z,100836.66
2023-01-06T16:51:38.381Z,100840.13
2023-01-06T16:54:11.126Z,100846.06
2023-01-06T16:56:38.924Z,100843.25
2023-01-06T16:59:09.182Z,100843.75
2023-01-06T17:01:36.489Z,100832.69
2023-01-06T17:04:03.967Z,100834.34
2023-01-06T17:06:31.845Z,100829.91
2023-01-06T17:09:01.546Z,100833.34
2023-01-06T17:11:29.882Z,100834.00
2023-01-06T17:13:59.985Z,100819.47
2023-01-06T17:16:31.412Z,100811.41
2023-01-06T17:19:00.564Z,100812.22
2023-01-06T17:21:28.117Z,100808.59
2023-01-06T17:24:02.996Z,100809.22
2023-01-06T17:26:30.110Z,100819.28
2023-01-06T17:28:57.951Z,100817.31
2023-01-06T17:31:29.311Z,100818.78
2023-01-06T17:33:57.784Z,100812.34
2023-01-06T17:36:25.955Z,100818.47
2023-01-06T17:38:53.357Z,100814.66
2023-01-06T17:41:21.641Z,100823.25
2023-01-06T17:43:48.845Z,100823.25
2023-01-06T17:46:19.614Z,100814.50
2023-01-06T17:48:48.122Z,100822.41
2023-01-06T17:51:16.125Z,100819.63
2023-01-06T17:53:46.548Z,100815.31
2023-01-06T17:56:13.737Z,100817.44
2023-01-06T17:58:43.558Z,100822.25
2023-01-06T18:01:14.613Z,100815.13
2023-01-06T18:03:43.120Z,100830.97
2023-01-06T18:06:13.475Z,100812.47
2023-01-06T18:08:40.547Z,100820.75
2023-01-06T18:11:10.982Z,100810.34
2023-01-06T18:13:39.301Z,100817.44
2023-01-06T18:16:24.474Z,100816.44
2023-01-06T18:18:51.596Z,100809.16
2023-01-06T18:21:21.658Z,100812.31
2023-01-06T18:23:50.835Z,100810.50
2023-01-06T18:26:21.305Z,100808.84
2023-01-06T18:28:48.438Z,100810.66
2023-01-06T18:31:17.689Z,100813.94
2023-01-06T18:33:44.852Z,100816.41
2023-01-06T18:36:11.983Z,100805.84
2023-01-06T18:38:39.068Z,100810.13
2023-01-06T18:41:10.211Z,100801.03
2023-01-06T18:43:39.328Z,100809.16
2023-01-06T18:46:09.586Z,100809.16
2023-01-06T18:48:38.606Z,100815.25
2023-01-06T18:51:16.404Z,100814.09
2023-01-06T18:53:43.839Z,100820.19
2023-01-06T18:56:14.981Z,100814.09
2023-01-06T18:58:48.386Z,100816.72
2023-01-06T19:01:20.008Z,100810.63
2023-01-06T19:03:50.263Z,100813.91
2023-01-06T19:06:18.659Z,100802.38
2023-01-06T19:08:47.344Z,100796.88
2023-01-06T19:11:17.899Z,100797.72
2023-01-06T19:13:46.023Z,100786.00
2023-01-06T19:16:16.237Z,100793.56
2023-01-06T19:18:43.378Z,100798.69
2023-01-06T19:21:13.578Z,100803.81
2023-01-06T19:23:40.957Z,100800.16
2023-01-06T19:26:11.781Z,100788.75
2023-01-06T19:28:38.881Z,100791.38
2023-01-06T19:31:06.434Z,100790.41
2023-01-06T19:33:35.141Z,100793.88
2023-01-06T19:36:03.695Z,100784.28
2023-01-06T19:38:34.146Z,100780.66
2023-01-06T19:41:02.781Z,100776.19
2023-01-06T19:43:31.579Z,100775.03
2023-01-06T19:46:02.250Z,100777.69
2023-01-06T19:48:38.378Z,100770.22
2023-01-06T19:51:08.539Z,100767.22
2023-01-06T19:53:41.695Z,100762.59
2023-01-06T19:56:12.045Z,100760.56
2023-01-06T19:58:39.101Z,100771.00
2023-01-06T20:01:06.393Z,100764.72
2023-01-06T20:03:34.544Z,100765.53
2023-01-06T20:06:01.964Z,100768.19
2023-01-06T20:08:29.196Z,100754.13
2023-01-06T20:10:56.466Z,100748.19
2023-01-06T20:13:23.876Z,100757.75
2023-01-06T20:15:50.955Z,100751.66
2023-01-06T20:18:18.181Z,100738.44
2023-01-06T20:20:45.216Z,100737.44
2023-01-06T20:23:12.359Z,100737.06
2023-01-06T20:25:39.606Z,100741.38
2023-01-06T20:28:06.856Z,100740.38
2023-01-06T20:30:33.997Z,100737.91
2023-01-06T20:33:01.146Z,100737.06
2023-01-06T20:35:28.456Z,100731.97
2023-01-06T20:37:55.605Z,100733.63
2023-01-06T20:40:22.710Z,100729.81
2023-01-06T20:42:50.022Z,100728.81
2023-01-06T20:45:17.265Z,100723.53
2023-01-06T20:47:44.465Z,100725.19
2023-01-06T20:50:14.151Z,100728.28
2023-01-06T20:52:41.779Z,100719.16
2023-01-06T20:55:09.496Z,100720.50
2023-01-06T20:57:36.823Z,100724.81
2023-01-06T21:00:05.081Z,100715.88
2023-01-06T21:02:32.318Z,100713.25
2023-01-06T21:04:59.647Z,100711.59
2023-01-06T21:07:26.847Z,100708.78
2023-01-06T21:09:53.995Z,100707.94
2023-01-06T21:12:21.104Z,100697.22
2023-01-06T21:14:48.257Z,100702.66
2023-01-06T21:17:15.398Z,100697.53
2023-01-06T21:19:42.595Z,100703.81
2023-01-06T21:22:10.052Z,100702.66
2023-01-06T21:24:37.175Z,100699.84
2023-01-06T21:27:04.347Z,100691.09
2023-01-06T21:29:31.534Z,100688.44
2023-01-06T21:32:00.742Z,100679.69
2023-01-06T21:34:28.143Z,100683.16
2023-01-06T21:36:55.461Z,100679.31
2023-01-06T21:39:22.736Z,100678.34
2023-01-06T21:41:53.079Z,100684.78
2023-01-06T21:44:21.497Z,100673.41
2023-01-06T21:46:48.718Z,100691.91
2023-01-06T21:49:15.998Z,100686.63
2023-01-06T21:51:43.243Z,100682.34
2023-01-06T21:54:10.473Z,100686.63
2023-01-06T21:56:37.851Z,100677.66
2023-01-06T21:59:05.061Z,100680.50
2023-01-06T22:01:32.204Z,100684.16
2023-01-06T22:03:59.515Z,100683.16
2023-01-06T22:06:30.085Z,100676.22
2023-01-06T22:08:58.637Z,100675.41
2023-01-06T22:11:25.967Z,100667.63
2023-01-06T22:13:53.642Z,100662.34
2023-01-06T22:16:20.963Z,100662.34
2023-01-06T22:18:48.104Z,100662.34
2023-01-06T22:21:15.508Z,100652.41
2023-01-06T22:23:43.774Z,100647.97
2023-01-06T22:26:10.941Z,100651.22
2023-01-06T22:28:38.141Z,100644.94
2023-01-06T22:31:05.410Z,100649.06
2023-01-06T22:33:32.540Z,100649.69
2023-01-06T22:36:00.228Z,100636.47
2023-01-06T22:38:27.468Z,100637.94
2023-01-06T22:40:54.627Z,100646.72
2023-01-06T22:43:22.488Z,100648.16
2023-01-06T22:45:52.680Z,100645.34
2023-01-06T22:48:20.256Z,100640.06
2023-01-06T22:50:47.374Z,100647.34
2023-01-06T22:53:15.054Z,100649.00
2023-01-06T22:55:42.136Z,100640.22
2023-01-06T22:58:09.360Z,100628.00
2023-01-06T23:00:36.536Z,100632.47
2023-01-06T23:03:03.684Z,100638.56
2023-01-06T23:05:30.944Z,100611.50
2023-01-06T23:07:58.038Z,100624.91
2023-01-06T23:10:25.180Z,100620.25
2023-01-06T23:12:53.315Z,100622.72
2023-01-06T23:15:20.447Z,100620.88
2023-01-06T23:17:47.792Z,100614.31
2023-01-06T23:20:14.845Z,100614.97
2023-01-06T23:22:41.904Z,100611.31
2023-01-06T23:25:09.725Z,100613.78
2023-01-06T23:27:38.175Z,100612.78
2023-01-06T23:30:06.004Z,100604.69
2023-01-06T23:32:33.065Z,100605.50
2023-01-06T23:35:00.178Z,100593.91
2023-01-06T23:37:43.492Z,100595.38
2023-01-06T23:40:15.623Z,100585.63
2023-01-06T23:42:48.303Z,100586.44
2023-01-06T23:45:15.339Z,100581.78
2023-01-06T23:47:42.355Z,100579.34
2023-01-06T23:50:09.833Z,100576.69
2023-01-06T23:52:36.974Z,100573.66
2023-01-06T23:55:05.195Z,100561.09
2023-01-06T23:57:32.260Z,100558.25
2023-01-06T23:59:59.357Z,100543.84
